Dayton, New York
Current Conditions -  °F | °C
As of 2:53 AM on Sunday 26 Oct 2014 (Local Time) from KDKK Reporting Station
Few Clouds Few Clouds  
Wind Chill: 52°   Ceiling: Unl
Heat Index: 52°   Visibility: 10mi
Dew Point: 37°   Wind: 14mph
Humidity: 57%   Direction: 290°WNW
Pressure: 29.73"   Gusts: 23mph
Location:  42.42°N, 78.98°W
Report Text: KDKK 260653Z AUTO 29012G20KT 10SM FEW060 11/03 A2973 RMK AO2 SLP067 T01110028
Loading
Personal Weather Stations






























Interactive Weather Map
Tropical Storm Tracking
New forecast layout! Learn more

10-Day Weather Forecast

Advertisements
Track Severe Weather on mobile